sensor_id;sensor_type;location;lat;lon;timestamp;temperature;humidity
11925;DHT22;6022;48.768;18.608;2023-05-07T00:01:58;11.30;99.90
11925;DHT22;6022;48.768;18.608;2023-05-07T00:04:26;11.50;99.90
11925;DHT22;6022;48.768;18.608;2023-05-07T00:06:56;11.30;99.90
11925;DHT22;6022;48.768;18.608;2023-05-07T00:09:24;11.50;99.90
11925;DHT22;6022;48.768;18.608;2023-05-07T00:11:52;11.40;99.90
11925;DHT22;6022;48.768;18.608;2023-05-07T00:14:20;11.30;99.90
11925;DHT22;6022;48.768;18.608;2023-05-07T00:16:48;11.30;99.90
11925;DHT22;6022;48.768;18.608;2023-05-07T00:19:17;11.20;99.90
11925;DHT22;6022;48.768;18.608;2023-05-07T00:21:45;10.90;99.90
11925;DHT22;6022;48.768;18.608;2023-05-07T00:24:14;11.30;99.90
11925;DHT22;6022;48.768;18.608;2023-05-07T00:26:42;11.30;99.90
11925;DHT22;6022;48.768;18.608;2023-05-07T00:29:10;11.20;99.90
11925;DHT22;6022;48.768;18.608;2023-05-07T00:31:38;11.00;99.90
11925;DHT22;6022;48.768;18.608;2023-05-07T00:34:07;11.10;99.90
11925;DHT22;6022;48.768;18.608;2023-05-07T00:36:36;11.10;99.90
11925;DHT22;6022;48.768;18.608;2023-05-07T00:39:04;11.10;99.90
11925;DHT22;6022;48.768;18.608;2023-05-07T00:41:34;11.20;99.90
11925;DHT22;6022;48.768;18.608;2023-05-07T00:44:03;11.00;99.90
11925;DHT22;6022;48.768;18.608;2023-05-07T00:46:36;11.00;99.90
11925;DHT22;6022;48.768;18.608;2023-05-07T00:49:04;10.80;99.90
11925;DHT22;6022;48.768;18.608;2023-05-07T00:51:34;11.00;99.90
11925;DHT22;6022;48.768;18.608;2023-05-07T00:54:03;10.70;99.90
11925;DHT22;6022;48.768;18.608;2023-05-07T00:56:32;10.70;99.90
11925;DHT22;6022;48.768;18.608;2023-05-07T00:59:01;10.90;99.90
11925;DHT22;6022;48.768;18.608;2023-05-07T01:01:32;10.50;99.90
11925;DHT22;6022;48.768;18.608;2023-05-07T01:04:01;10.60;99.90
11925;DHT22;6022;48.768;18.608;2023-05-07T01:06:32;10.70;99.90
11925;DHT22;6022;48.768;18.608;2023-05-07T01:09:02;10.70;99.90
11925;DHT22;6022;48.768;18.608;2023-05-07T01:11:31;10.70;99.90
11925;DHT22;6022;48.768;18.608;2023-05-07T01:14:01;10.90;99.90
11925;DHT22;6022;48.768;18.608;2023-05-07T01:16:30;10.90;99.90
11925;DHT22;6022;48.768;18.608;2023-05-07T01:18:58;10.40;99.90
11925;DHT22;6022;48.768;18.608;2023-05-07T01:21:29;10.60;99.90
11925;DHT22;6022;48.768;18.608;2023-05-07T01:24:01;10.50;99.90
11925;DHT22;6022;48.768;18.608;2023-05-07T01:26:30;10.50;99.90
11925;DHT22;6022;48.768;18.608;2023-05-07T01:28:59;10.40;99.90
11925;DHT22;6022;48.768;18.608;2023-05-07T01:31:26;10.40;99.90
11925;DHT22;6022;48.768;18.608;2023-05-07T01:33:56;10.40;99.90
11925;DHT22;6022;48.768;18.608;2023-05-07T01:36:28;10.30;99.90
11925;DHT22;6022;48.768;18.608;2023-05-07T01:38:59;10.20;99.90
11925;DHT22;6022;48.768;18.608;2023-05-07T01:41:27;10.20;99.90
11925;DHT22;6022;48.768;18.608;2023-05-07T01:43:58;10.10;99.90
11925;DHT22;6022;48.768;18.608;2023-05-07T01:46:27;10.20;99.90
11925;DHT22;6022;48.768;18.608;2023-05-07T01:48:56;10.10;99.90
11925;DHT22;6022;48.768;18.608;2023-05-07T01:51:26;10.10;99.90
11925;DHT22;6022;48.768;18.608;2023-05-07T01:53:53;10.10;99.90
11925;DHT22;6022;48.768;18.608;2023-05-07T01:56:25;10.00;99.90
11925;DHT22;6022;48.768;18.608;2023-05-07T01:58:53;10.30;99.90
11925;DHT22;6022;48.768;18.608;2023-05-07T02:01:21;10.00;99.90
11925;DHT22;6022;48.768;18.608;2023-05-07T02:03:49;10.30;99.90
11925;DHT22;6022;48.768;18.608;2023-05-07T02:06:18;9.80;99.90
11925;DHT22;6022;48.768;18.608;2023-05-07T02:08:47;10.20;99.90
11925;DHT22;6022;48.768;18.608;2023-05-07T02:11:16;10.10;99.90
11925;DHT22;6022;48.768;18.608;2023-05-07T02:13:45;10.00;99.90
11925;DHT22;6022;48.768;18.608;2023-05-07T02:16:13;9.90;99.90
11925;DHT22;6022;48.768;18.608;2023-05-07T02:18:42;9.80;99.90
11925;DHT22;6022;48.768;18.608;2023-05-07T02:21:13;10.20;99.90
11925;DHT22;6022;48.768;18.608;2023-05-07T02:23:42;10.20;99.90
11925;DHT22;6022;48.768;18.608;2023-05-07T02:26:13;10.10;99.90
11925;DHT22;6022;48.768;18.608;2023-05-07T02:28:41;9.70;99.90
11925;DHT22;6022;48.768;18.608;2023-05-07T02:31:08;9.80;99.90
11925;DHT22;6022;48.768;18.608;2023-05-07T02:33:37;9.90;99.90
11925;DHT22;6022;48.768;18.608;2023-05-07T02:36:09;9.70;99.90
11925;DHT22;6022;48.768;18.608;2023-05-07T02:38:38;9.70;99.90
11925;DHT22;6022;48.768;18.608;2023-05-07T02:41:06;9.90;99.90
11925;DHT22;6022;48.768;18.608;2023-05-07T02:43:34;9.60;99.90
11925;DHT22;6022;48.768;18.608;2023-05-07T02:46:05;9.50;99.90
11925;DHT22;6022;48.768;18.608;2023-05-07T02:48:34;9.60;99.90
11925;DHT22;6022;48.768;18.608;2023-05-07T02:51:03;9.70;99.90
11925;DHT22;6022;48.768;18.608;2023-05-07T02:53:33;9.70;99.90
11925;DHT22;6022;48.768;18.608;2023-05-07T02:56:01;9.90;99.90
11925;DHT22;6022;48.768;18.608;2023-05-07T02:58:29;9.50;99.90
11925;DHT22;6022;48.768;18.608;2023-05-07T03:00:57;9.50;99.90
11925;DHT22;6022;48.768;18.608;2023-05-07T03:03:27;9.30;99.90
11925;DHT22;6022;48.768;18.608;2023-05-07T03:05:55;9.50;99.90
11925;DHT22;6022;48.768;18.608;2023-05-07T03:08:24;9.60;99.90
11925;DHT22;6022;48.768;18.608;2023-05-07T03:10:53;9.60;99.90
11925;DHT22;6022;48.768;18.608;2023-05-07T03:13:22;9.70;99.90
11925;DHT22;6022;48.768;18.608;2023-05-07T03:15:49;9.80;99.90
11925;DHT22;6022;48.768;18.608;2023-05-07T03:18:18;9.90;99.90
11925;DHT22;6022;48.768;18.608;2023-05-07T03:20:48;9.70;99.90
11925;DHT22;6022;48.768;18.608;2023-05-07T03:23:17;9.90;99.90
11925;DHT22;6022;48.768;18.608;2023-05-07T03:25:45;9.60;99.90
11925;DHT22;6022;48.768;18.608;2023-05-07T03:28:14;9.60;99.90
11925;DHT22;6022;48.768;18.608;2023-05-07T03:30:43;9.50;99.90
11925;DHT22;6022;48.768;18.608;2023-05-07T03:33:12;9.50;99.90
11925;DHT22;6022;48.768;18.608;2023-05-07T03:35:40;9.80;99.90
11925;DHT22;6022;48.768;18.608;2023-05-07T03:38:09;9.60;99.90
11925;DHT22;6022;48.768;18.608;2023-05-07T03:40:36;9.60;99.90
11925;DHT22;6022;48.768;18.608;2023-05-07T03:43:06;9.50;99.90
11925;DHT22;6022;48.768;18.608;2023-05-07T03:45:35;9.80;99.90
11925;DHT22;6022;48.768;18.608;2023-05-07T03:48:05;9.90;99.90
11925;DHT22;6022;48.768;18.608;2023-05-07T03:50:34;9.70;99.90
11925;DHT22;6022;48.768;18.608;2023-05-07T03:53:04;10.00;99.90
11925;DHT22;6022;48.768;18.608;2023-05-07T03:55:32;9.90;99.90
11925;DHT22;6022;48.768;18.608;2023-05-07T03:57:59;10.00;99.90
11925;DHT22;6022;48.768;18.608;2023-05-07T04:00:29;9.90;99.90
11925;DHT22;6022;48.768;18.608;2023-05-07T04:03:02;9.90;99.90
11925;DHT22;6022;48.768;18.608;2023-05-07T04:05:33;10.20;99.90
11925;DHT22;6022;48.768;18.608;2023-05-07T04:08:01;10.10;99.90
11925;DHT22;6022;48.768;18.608;2023-05-07T04:10:30;10.00;99.90
11925;DHT22;6022;48.768;18.608;2023-05-07T04:12:59;10.40;99.90
11925;DHT22;6022;48.768;18.608;2023-05-07T04:15:27;10.50;99.90
11925;DHT22;6022;48.768;18.608;2023-05-07T04:17:54;10.50;99.90
11925;DHT22;6022;48.768;18.608;2023-05-07T04:20:22;10.80;99.90
11925;DHT22;6022;48.768;18.608;2023-05-07T04:23:02;10.70;99.90
11925;DHT22;6022;48.768;18.608;2023-05-07T04:25:32;10.90;99.90
11925;DHT22;6022;48.768;18.608;2023-05-07T04:28:04;10.70;99.90
11925;DHT22;6022;48.768;18.608;2023-05-07T04:30:36;10.80;99.90
11925;DHT22;6022;48.768;18.608;2023-05-07T04:33:06;11.10;99.90
11925;DHT22;6022;48.768;18.608;2023-05-07T04:35:39;11.30;99.90
11925;DHT22;6022;48.768;18.608;2023-05-07T04:38:08;11.30;99.90
11925;DHT22;6022;48.768;18.608;2023-05-07T04:40:43;11.50;99.90
11925;DHT22;6022;48.768;18.608;2023-05-07T04:43:14;12.10;99.90
11925;DHT22;6022;48.768;18.608;2023-05-07T04:45:44;12.20;99.90
11925;DHT22;6022;48.768;18.608;2023-05-07T04:48:13;12.70;99.90
11925;DHT22;6022;48.768;18.608;2023-05-07T04:50:47;13.20;99.90
11925;DHT22;6022;48.768;18.608;2023-05-07T04:53:19;13.80;99.90
11925;DHT22;6022;48.768;18.608;2023-05-07T04:55:54;14.00;99.90
11925;DHT22;6022;48.768;18.608;2023-05-07T04:58:30;14.50;99.90
11925;DHT22;6022;48.768;18.608;2023-05-07T05:01:12;15.00;99.90
11925;DHT22;6022;48.768;18.608;2023-05-07T05:04:07;15.30;99.90
11925;DHT22;6022;48.768;18.608;2023-05-07T05:06:42;15.80;99.90
11925;DHT22;6022;48.768;18.608;2023-05-07T05:12:15;16.70;99.90
11925;DHT22;6022;48.768;18.608;2023-05-07T05:14:45;16.70;99.90
11925;DHT22;6022;48.768;18.608;2023-05-07T05:17:19;17.00;99.90
11925;DHT22;6022;48.768;18.608;2023-05-07T05:19:51;17.60;99.90
11925;DHT22;6022;48.768;18.608;2023-05-07T05:22:22;18.10;99.90
11925;DHT22;6022;48.768;18.608;2023-05-07T05:24:55;18.00;99.90
11925;DHT22;6022;48.768;18.608;2023-05-07T05:27:28;18.00;99.90
11925;DHT22;6022;48.768;18.608;2023-05-07T05:30:03;19.60;99.90
11925;DHT22;6022;48.768;18.608;2023-05-07T05:32:43;19.40;99.90
11925;DHT22;6022;48.768;18.608;2023-05-07T05:35:13;20.50;99.90
11925;DHT22;6022;48.768;18.608;2023-05-07T05:37:45;20.40;99.90
11925;DHT22;6022;48.768;18.608;2023-05-07T05:40:14;20.40;99.90
11925;DHT22;6022;48.768;18.608;2023-05-07T05:42:47;19.80;99.90
11925;DHT22;6022;48.768;18.608;2023-05-07T05:45:19;19.80;99.90
11925;DHT22;6022;48.768;18.608;2023-05-07T05:47:51;20.40;99.90
11925;DHT22;6022;48.768;18.608;2023-05-07T05:50:23;20.40;99.90
11925;DHT22;6022;48.768;18.608;2023-05-07T05:53:01;21.00;99.90
11925;DHT22;6022;48.768;18.608;2023-05-07T05:55:36;21.60;99.90
11925;DHT22;6022;48.768;18.608;2023-05-07T05:58:12;22.30;99.90
11925;DHT22;6022;48.768;18.608;2023-05-07T06:00:45;22.10;99.90
11925;DHT22;6022;48.768;18.608;2023-05-07T06:03:36;21.70;99.90
11925;DHT22;6022;48.768;18.608;2023-05-07T06:06:09;21.60;99.90
11925;DHT22;6022;48.768;18.608;2023-05-07T06:09:02;21.20;99.90
11925;DHT22;6022;48.768;18.608;2023-05-07T06:11:46;22.20;99.90
11925;DHT22;6022;48.768;18.608;2023-05-07T06:14:18;22.80;99.90
11925;DHT22;6022;48.768;18.608;2023-05-07T06:16:47;23.00;99.90
11925;DHT22;6022;48.768;18.608;2023-05-07T06:19:19;22.40;99.90
11925;DHT22;6022;48.768;18.608;2023-05-07T06:21:50;22.00;99.90
11925;DHT22;6022;48.768;18.608;2023-05-07T06:24:19;21.90;99.90
11925;DHT22;6022;48.768;18.608;2023-05-07T06:26:48;22.30;99.90
11925;DHT22;6022;48.768;18.608;2023-05-07T06:29:16;23.00;99.90
11925;DHT22;6022;48.768;18.608;2023-05-07T06:32:09;23.10;99.90
11925;DHT22;6022;48.768;18.608;2023-05-07T06:42:49;23.30;99.90
11925;DHT22;6022;48.768;18.608;2023-05-07T06:45:21;23.20;99.90
11925;DHT22;6022;48.768;18.608;2023-05-07T06:47:56;23.30;99.90
11925;DHT22;6022;48.768;18.608;2023-05-07T06:54:12;23.90;99.90
11925;DHT22;6022;48.768;18.608;2023-05-07T06:56:53;24.20;99.90
11925;DHT22;6022;48.768;18.608;2023-05-07T06:59:21;24.10;99.90
11925;DHT22;6022;48.768;18.608;2023-05-07T07:01:50;24.90;99.90
11925;DHT22;6022;48.768;18.608;2023-05-07T07:04:20;24.60;99.90
11925;DHT22;6022;48.768;18.608;2023-05-07T07:06:53;24.60;99.90
11925;DHT22;6022;48.768;18.608;2023-05-07T07:09:23;24.50;99.60
11925;DHT22;6022;48.768;18.608;2023-05-07T07:11:51;24.90;98.80
11925;DHT22;6022;48.768;18.608;2023-05-07T07:14:20;23.60;97.40
11925;DHT22;6022;48.768;18.608;2023-05-07T07:16:47;23.60;99.10
11925;DHT22;6022;48.768;18.608;2023-05-07T07:19:17;22.80;98.30
11925;DHT22;6022;48.768;18.608;2023-05-07T07:21:51;23.40;96.80
11925;DHT22;6022;48.768;18.608;2023-05-07T07:24:23;23.40;98.00
11925;DHT22;6022;48.768;18.608;2023-05-07T07:26:59;24.70;98.60
11925;DHT22;6022;48.768;18.608;2023-05-07T07:29:31;24.70;95.00
11925;DHT22;6022;48.768;18.608;2023-05-07T07:31:59;24.60;95.40
11925;DHT22;6022;48.768;18.608;2023-05-07T07:34:30;25.00;93.20
11925;DHT22;6022;48.768;18.608;2023-05-07T07:37:06;25.00;93.70
11925;DHT22;6022;48.768;18.608;2023-05-07T07:39:39;24.20;95.40
11925;DHT22;6022;48.768;18.608;2023-05-07T07:42:17;23.10;96.70
11925;DHT22;6022;48.768;18.608;2023-05-07T07:44:48;24.60;95.30
11925;DHT22;6022;48.768;18.608;2023-05-07T07:47:19;24.70;94.10
11925;DHT22;6022;48.768;18.608;2023-05-07T07:49:58;24.50;93.60
11925;DHT22;6022;48.768;18.608;2023-05-07T07:52:28;24.80;94.30
11925;DHT22;6022;48.768;18.608;2023-05-07T07:54:56;24.60;93.70
11925;DHT22;6022;48.768;18.608;2023-05-07T07:57:26;23.50;94.80
11925;DHT22;6022;48.768;18.608;2023-05-07T07:59:55;24.30;95.10
11925;DHT22;6022;48.768;18.608;2023-05-07T08:02:24;24.40;95.00
11925;DHT22;6022;48.768;18.608;2023-05-07T08:04:57;25.60;92.70
11925;DHT22;6022;48.768;18.608;2023-05-07T08:07:36;26.30;90.40
11925;DHT22;6022;48.768;18.608;2023-05-07T08:10:09;25.90;88.20
11925;DHT22;6022;48.768;18.608;2023-05-07T08:12:56;26.40;82.40
11925;DHT22;6022;48.768;18.608;2023-05-07T08:15:33;26.50;82.10
11925;DHT22;6022;48.768;18.608;2023-05-07T08:18:04;26.90;78.70
11925;DHT22;6022;48.768;18.608;2023-05-07T08:20:38;26.10;79.30
11925;DHT22;6022;48.768;18.608;2023-05-07T08:23:22;25.80;79.10
11925;DHT22;6022;48.768;18.608;2023-05-07T08:25:54;25.50;81.50
11925;DHT22;6022;48.768;18.608;2023-05-07T08:28:24;25.80;79.10
11925;DHT22;6022;48.768;18.608;2023-05-07T08:31:01;25.40;80.50
11925;DHT22;6022;48.768;18.608;2023-05-07T08:33:32;25.00;80.10
11925;DHT22;6022;48.768;18.608;2023-05-07T08:36:07;24.80;82.50
11925;DHT22;6022;48.768;18.608;2023-05-07T08:38:37;24.30;83.30
11925;DHT22;6022;48.768;18.608;2023-05-07T08:41:10;24.50;84.20
11925;DHT22;6022;48.768;18.608;2023-05-07T08:43:44;25.00;84.50
11925;DHT22;6022;48.768;18.608;2023-05-07T08:46:22;24.30;82.40
11925;DHT22;6022;48.768;18.608;2023-05-07T08:48:51;24.80;82.00
11925;DHT22;6022;48.768;18.608;2023-05-07T08:51:23;24.80;82.20
11925;DHT22;6022;48.768;18.608;2023-05-07T08:53:56;24.80;81.60
11925;DHT22;6022;48.768;18.608;2023-05-07T08:56:28;24.70;81.20
11925;DHT22;6022;48.768;18.608;2023-05-07T08:59:11;24.90;79.60
11925;DHT22;6022;48.768;18.608;2023-05-07T09:02:12;25.00;78.20
11925;DHT22;6022;48.768;18.608;2023-05-07T09:05:11;24.80;77.70
11925;DHT22;6022;48.768;18.608;2023-05-07T09:08:14;24.80;78.00
11925;DHT22;6022;48.768;18.608;2023-05-07T09:10:55;25.30;79.60
11925;DHT22;6022;48.768;18.608;2023-05-07T09:13:27;25.30;76.30
11925;DHT22;6022;48.768;18.608;2023-05-07T09:16:13;24.00;79.20
11925;DHT22;6022;48.768;18.608;2023-05-07T09:19:26;24.20;79.40
11925;DHT22;6022;48.768;18.608;2023-05-07T09:22:02;24.70;79.50
11925;DHT22;6022;48.768;18.608;2023-05-07T09:24:47;24.60;77.10
11925;DHT22;6022;48.768;18.608;2023-05-07T09:27:22;25.00;78.10
11925;DHT22;6022;48.768;18.608;2023-05-07T09:29:52;24.80;76.40
11925;DHT22;6022;48.768;18.608;2023-05-07T09:32:28;24.70;76.20
11925;DHT22;6022;48.768;18.608;2023-05-07T09:34:59;23.70;76.40
11925;DHT22;6022;48.768;18.608;2023-05-07T09:37:31;22.30;78.70
11925;DHT22;6022;48.768;18.608;2023-05-07T09:40:00;22.60;81.10
11925;DHT22;6022;48.768;18.608;2023-05-07T09:42:28;23.60;79.00
11925;DHT22;6022;48.768;18.608;2023-05-07T09:44:59;23.60;80.30
11925;DHT22;6022;48.768;18.608;2023-05-07T09:47:32;23.80;79.90
11925;DHT22;6022;48.768;18.608;2023-05-07T09:50:07;23.20;79.10
11925;DHT22;6022;48.768;18.608;2023-05-07T09:52:42;23.40;79.80
11925;DHT22;6022;48.768;18.608;2023-05-07T09:55:12;23.10;80.60
11925;DHT22;6022;48.768;18.608;2023-05-07T09:57:43;23.80;77.30
11925;DHT22;6022;48.768;18.608;2023-05-07T10:00:14;23.90;78.70
11925;DHT22;6022;48.768;18.608;2023-05-07T10:02:51;23.20;75.40
11925;DHT22;6022;48.768;18.608;2023-05-07T10:05:30;23.60;79.50
11925;DHT22;6022;48.768;18.608;2023-05-07T10:08:01;23.60;79.20
11925;DHT22;6022;48.768;18.608;2023-05-07T10:10:34;23.70;79.90
11925;DHT22;6022;48.768;18.608;2023-05-07T10:13:06;23.90;77.10
11925;DHT22;6022;48.768;18.608;2023-05-07T10:15:39;23.90;78.30
11925;DHT22;6022;48.768;18.608;2023-05-07T10:18:12;23.90;80.60
11925;DHT22;6022;48.768;18.608;2023-05-07T10:20:45;24.00;76.80
11925;DHT22;6022;48.768;18.608;2023-05-07T10:23:19;24.00;76.10
11925;DHT22;6022;48.768;18.608;2023-05-07T10:25:53;23.70;77.80
11925;DHT22;6022;48.768;18.608;2023-05-07T10:28:29;23.60;78.90
11925;DHT22;6022;48.768;18.608;2023-05-07T10:33:45;23.20;78.20
11925;DHT22;6022;48.768;18.608;2023-05-07T10:36:17;23.70;78.10
11925;DHT22;6022;48.768;18.608;2023-05-07T10:38:46;23.60;79.10
11925;DHT22;6022;48.768;18.608;2023-05-07T10:41:16;23.80;77.70
11925;DHT22;6022;48.768;18.608;2023-05-07T10:43:49;23.60;76.40
11925;DHT22;6022;48.768;18.608;2023-05-07T10:46:21;23.30;75.00
11925;DHT22;6022;48.768;18.608;2023-05-07T10:51:31;23.60;80.10
11925;DHT22;6022;48.768;18.608;2023-05-07T10:56:43;23.40;78.00
11925;DHT22;6022;48.768;18.608;2023-05-07T11:01:54;23.40;81.10
11925;DHT22;6022;48.768;18.608;2023-05-07T11:04:32;23.50;81.80
11925;DHT22;6022;48.768;18.608;2023-05-07T11:09:57;22.90;77.60
11925;DHT22;6022;48.768;18.608;2023-05-07T11:15:09;23.40;81.00
11925;DHT22;6022;48.768;18.608;2023-05-07T11:17:56;23.50;78.80
11925;DHT22;6022;48.768;18.608;2023-05-07T11:20:51;23.00;77.80
11925;DHT22;6022;48.768;18.608;2023-05-07T11:26:07;22.80;78.50
11925;DHT22;6022;48.768;18.608;2023-05-07T11:28:40;22.80;79.90
11925;DHT22;6022;48.768;18.608;2023-05-07T11:31:11;23.10;80.20
11925;DHT22;6022;48.768;18.608;2023-05-07T11:33:40;23.60;78.00
11925;DHT22;6022;48.768;18.608;2023-05-07T11:36:09;23.20;78.50
11925;DHT22;6022;48.768;18.608;2023-05-07T11:38:38;23.30;81.40
11925;DHT22;6022;48.768;18.608;2023-05-07T11:41:08;22.90;78.50
11925;DHT22;6022;48.768;18.608;2023-05-07T11:43:59;23.40;77.90
11925;DHT22;6022;48.768;18.608;2023-05-07T11:46:44;22.90;78.80
11925;DHT22;6022;48.768;18.608;2023-05-07T11:49:17;22.90;79.70
11925;DHT22;6022;48.768;18.608;2023-05-07T11:51:45;23.40;78.10
11925;DHT22;6022;48.768;18.608;2023-05-07T11:54:16;23.40;78.10
11925;DHT22;6022;48.768;18.608;2023-05-07T11:56:44;23.50;79.70
11925;DHT22;6022;48.768;18.608;2023-05-07T11:59:17;23.50;77.30
11925;DHT22;6022;48.768;18.608;2023-05-07T12:01:47;23.50;76.60
11925;DHT22;6022;48.768;18.608;2023-05-07T12:04:19;23.10;76.70
11925;DHT22;6022;48.768;18.608;2023-05-07T12:06:49;23.20;77.00
11925;DHT22;6022;48.768;18.608;2023-05-07T12:09:22;22.90;76.30
11925;DHT22;6022;48.768;18.608;2023-05-07T12:11:52;23.20;78.20
11925;DHT22;6022;48.768;18.608;2023-05-07T12:14:27;23.20;79.00
11925;DHT22;6022;48.768;18.608;2023-05-07T12:16:56;23.40;76.50
11925;DHT22;6022;48.768;18.608;2023-05-07T12:19:29;23.10;79.30
11925;DHT22;6022;48.768;18.608;2023-05-07T12:21:58;22.70;77.40
11925;DHT22;6022;48.768;18.608;2023-05-07T12:24:28;23.40;77.30
11925;DHT22;6022;48.768;18.608;2023-05-07T12:27:09;23.20;78.10
11925;DHT22;6022;48.768;18.608;2023-05-07T12:29:38;23.50;77.60
11925;DHT22;6022;48.768;18.608;2023-05-07T12:32:17;23.10;77.90
11925;DHT22;6022;48.768;18.608;2023-05-07T12:34:57;22.70;78.60
11925;DHT22;6022;48.768;18.608;2023-05-07T12:37:26;22.40;82.70
11925;DHT22;6022;48.768;18.608;2023-05-07T12:40:05;22.70;84.50
11925;DHT22;6022;48.768;18.608;2023-05-07T12:42:38;22.70;82.50
11925;DHT22;6022;48.768;18.608;2023-05-07T12:45:10;22.50;83.90
11925;DHT22;6022;48.768;18.608;2023-05-07T12:47:47;23.20;81.20
11925;DHT22;6022;48.768;18.608;2023-05-07T12:50:18;23.00;80.50
11925;DHT22;6022;48.768;18.608;2023-05-07T12:52:48;22.40;84.00
11925;DHT22;6022;48.768;18.608;2023-05-07T12:55:17;22.20;84.20
11925;DHT22;6022;48.768;18.608;2023-05-07T12:57:49;22.00;82.90
11925;DHT22;6022;48.768;18.608;2023-05-07T13:00:36;21.00;84.60
11925;DHT22;6022;48.768;18.608;2023-05-07T13:03:06;21.20;86.30
11925;DHT22;6022;48.768;18.608;2023-05-07T13:05:35;21.10;86.80
11925;DHT22;6022;48.768;18.608;2023-05-07T13:08:03;21.00;90.70
11925;DHT22;6022;48.768;18.608;2023-05-07T13:10:33;20.90;89.30
11925;DHT22;6022;48.768;18.608;2023-05-07T13:13:02;20.50;90.80
11925;DHT22;6022;48.768;18.608;2023-05-07T13:15:32;20.30;91.60
11925;DHT22;6022;48.768;18.608;2023-05-07T13:18:02;20.10;91.90
11925;DHT22;6022;48.768;18.608;2023-05-07T13:20:30;20.30;92.10
11925;DHT22;6022;48.768;18.608;2023-05-07T13:23:01;20.20;92.30
11925;DHT22;6022;48.768;18.608;2023-05-07T13:25:34;20.00;91.80
11925;DHT22;6022;48.768;18.608;2023-05-07T13:28:05;20.10;92.10
11925;DHT22;6022;48.768;18.608;2023-05-07T13:30:37;20.00;92.30
11925;DHT22;6022;48.768;18.608;2023-05-07T13:33:29;20.20;91.20
11925;DHT22;6022;48.768;18.608;2023-05-07T13:36:02;20.10;90.70
11925;DHT22;6022;48.768;18.608;2023-05-07T13:38:34;19.70;91.40
11925;DHT22;6022;48.768;18.608;2023-05-07T13:41:14;19.70;92.10
11925;DHT22;6022;48.768;18.608;2023-05-07T13:43:50;20.10;92.40
11925;DHT22;6022;48.768;18.608;2023-05-07T13:46:19;20.10;92.20
11925;DHT22;6022;48.768;18.608;2023-05-07T13:49:01;19.50;92.70
11925;DHT22;6022;48.768;18.608;2023-05-07T13:51:31;19.60;93.90
11925;DHT22;6022;48.768;18.608;2023-05-07T13:54:02;19.80;93.50
11925;DHT22;6022;48.768;18.608;2023-05-07T13:56:34;19.40;94.30
11925;DHT22;6022;48.768;18.608;2023-05-07T13:59:02;19.30;95.10
11925;DHT22;6022;48.768;18.608;2023-05-07T14:01:32;18.80;95.90
11925;DHT22;6022;48.768;18.608;2023-05-07T14:04:01;18.90;96.50
11925;DHT22;6022;48.768;18.608;2023-05-07T14:06:30;18.70;96.50
11925;DHT22;6022;48.768;18.608;2023-05-07T14:08:59;18.70;96.70
11925;DHT22;6022;48.768;18.608;2023-05-07T14:11:28;18.40;97.90
11925;DHT22;6022;48.768;18.608;2023-05-07T14:13:58;18.60;97.80
11925;DHT22;6022;48.768;18.608;2023-05-07T14:16:28;18.50;98.00
11925;DHT22;6022;48.768;18.608;2023-05-07T14:18:57;18.60;99.00
11925;DHT22;6022;48.768;18.608;2023-05-07T14:21:25;18.60;98.80
11925;DHT22;6022;48.768;18.608;2023-05-07T14:23:53;18.70;99.20
11925;DHT22;6022;48.768;18.608;2023-05-07T14:26:23;18.60;98.30
11925;DHT22;6022;48.768;18.608;2023-05-07T14:28:51;18.60;99.40
11925;DHT22;6022;48.768;18.608;2023-05-07T14:31:20;18.60;99.90
11925;DHT22;6022;48.768;18.608;2023-05-07T14:33:49;18.80;98.60
11925;DHT22;6022;48.768;18.608;2023-05-07T14:36:19;18.40;99.20
11925;DHT22;6022;48.768;18.608;2023-05-07T14:38:53;18.30;99.70
11925;DHT22;6022;48.768;18.608;2023-05-07T14:41:22;18.70;98.30
11925;DHT22;6022;48.768;18.608;2023-05-07T14:43:55;18.70;98.60
11925;DHT22;6022;48.768;18.608;2023-05-07T14:46:26;18.70;99.00
11925;DHT22;6022;48.768;18.608;2023-05-07T14:48:55;18.60;99.70
11925;DHT22;6022;48.768;18.608;2023-05-07T14:51:24;18.20;99.00
11925;DHT22;6022;48.768;18.608;2023-05-07T14:53:53;18.40;99.90
11925;DHT22;6022;48.768;18.608;2023-05-07T14:56:21;18.30;99.90
11925;DHT22;6022;48.768;18.608;2023-05-07T14:58:49;18.30;99.90
11925;DHT22;6022;48.768;18.608;2023-05-07T15:01:19;18.20;99.90
11925;DHT22;6022;48.768;18.608;2023-05-07T15:03:48;18.10;99.90
11925;DHT22;6022;48.768;18.608;2023-05-07T15:06:17;18.10;99.90
11925;DHT22;6022;48.768;18.608;2023-05-07T15:08:45;18.30;99.90
11925;DHT22;6022;48.768;18.608;2023-05-07T15:11:15;18.10;99.90
11925;DHT22;6022;48.768;18.608;2023-05-07T15:13:45;17.90;99.90
11925;DHT22;6022;48.768;18.608;2023-05-07T15:16:14;17.60;99.90
11925;DHT22;6022;48.768;18.608;2023-05-07T15:18:42;17.80;99.90
11925;DHT22;6022;48.768;18.608;2023-05-07T15:21:12;17.70;99.90
11925;DHT22;6022;48.768;18.608;2023-05-07T15:23:40;17.50;99.90
11925;DHT22;6022;48.768;18.608;2023-05-07T15:26:13;17.50;99.90
11925;DHT22;6022;48.768;18.608;2023-05-07T15:28:44;17.50;99.90
11925;DHT22;6022;48.768;18.608;2023-05-07T15:31:27;17.40;99.90
11925;DHT22;6022;48.768;18.608;2023-05-07T15:34:25;17.20;99.90
11925;DHT22;6022;48.768;18.608;2023-05-07T15:37:07;17.10;99.90
11925;DHT22;6022;48.768;18.608;2023-05-07T15:39:38;17.00;99.90
11925;DHT22;6022;48.768;18.608;2023-05-07T15:42:06;16.90;99.90
11925;DHT22;6022;48.768;18.608;2023-05-07T15:44:38;17.10;99.90
11925;DHT22;6022;48.768;18.608;2023-05-07T15:47:07;16.90;99.90
11925;DHT22;6022;48.768;18.608;2023-05-07T15:49:38;16.70;99.90
11925;DHT22;6022;48.768;18.608;2023-05-07T15:52:06;16.50;99.90
11925;DHT22;6022;48.768;18.608;2023-05-07T15:54:38;16.00;99.90
11925;DHT22;6022;48.768;18.608;2023-05-07T15:57:12;16.20;99.90
11925;DHT22;6022;48.768;18.608;2023-05-07T15:59:50;15.90;99.90
11925;DHT22;6022;48.768;18.608;2023-05-07T16:02:21;15.90;99.90
11925;DHT22;6022;48.768;18.608;2023-05-07T16:04:53;15.90;99.90
11925;DHT22;6022;48.768;18.608;2023-05-07T16:07:22;15.90;99.90
11925;DHT22;6022;48.768;18.608;2023-05-07T16:09:53;15.70;99.90
11925;DHT22;6022;48.768;18.608;2023-05-07T16:12:29;15.70;99.90
11925;DHT22;6022;48.768;18.608;2023-05-07T16:15:01;15.70;99.90
11925;DHT22;6022;48.768;18.608;2023-05-07T16:17:37;15.70;99.90
11925;DHT22;6022;48.768;18.608;2023-05-07T16:20:11;15.60;99.90
11925;DHT22;6022;48.768;18.608;2023-05-07T16:22:41;15.50;99.90
11925;DHT22;6022;48.768;18.608;2023-05-07T16:25:09;15.60;99.90
11925;DHT22;6022;48.768;18.608;2023-05-07T16:27:39;15.50;99.90
11925;DHT22;6022;48.768;18.608;2023-05-07T16:30:12;15.40;99.90
11925;DHT22;6022;48.768;18.608;2023-05-07T16:32:45;15.20;99.90
11925;DHT22;6022;48.768;18.608;2023-05-07T16:35:21;15.10;99.90
11925;DHT22;6022;48.768;18.608;2023-05-07T16:37:51;15.20;99.90